createdAt,value
2023-09-15T00:00:03.701Z,15.60
2023-09-15T00:02:42.928Z,15.70
2023-09-15T00:05:19.576Z,15.70
2023-09-15T00:07:55.755Z,15.70
2023-09-15T00:10:31.261Z,15.80
2023-09-15T00:13:07.054Z,15.90
2023-09-15T00:15:43.673Z,15.90
2023-09-15T00:18:23.214Z,16.00
2023-09-15T00:21:02.859Z,16.10
2023-09-15T00:23:38.645Z,16.10
2023-09-15T00:26:16.683Z,16.20
2023-09-15T00:28:52.495Z,16.30
2023-09-15T00:31:28.165Z,16.30
2023-09-15T00:34:07.466Z,16.40
2023-09-15T00:36:44.108Z,16.40
2023-09-15T00:39:19.805Z,16.50
2023-09-15T00:41:56.370Z,16.50
2023-09-15T00:44:32.991Z,16.60
2023-09-15T00:47:08.383Z,16.60
2023-09-15T00:49:46.761Z,16.70
2023-09-15T00:52:22.839Z,16.80
2023-09-15T00:55:00.234Z,16.80
2023-09-15T00:57:36.328Z,16.90
2023-09-15T01:00:16.058Z,17.00
2023-09-15T01:02:51.810Z,17.00
2023-09-15T01:05:32.135Z,17.10
2023-09-15T01:08:08.346Z,17.10
2023-09-15T01:10:45.700Z,17.20
2023-09-15T01:13:21.013Z,17.30
2023-09-15T01:16:03.915Z,17.30
2023-09-15T01:18:49.643Z,17.40
2023-09-15T01:21:49.329Z,17.50
2023-09-15T01:25:04.654Z,17.50
2023-09-15T01:28:07.164Z,17.60
2023-09-15T01:30:49.124Z,17.70
2023-09-15T01:33:30.798Z,17.70
2023-09-15T01:36:06.731Z,17.80
2023-09-15T01:38:49.990Z,17.80
2023-09-15T01:41:39.121Z,17.90
2023-09-15T01:44:15.202Z,17.90
2023-09-15T01:46:53.418Z,17.90
2023-09-15T01:49:31.261Z,17.90
2023-09-15T01:52:07.443Z,18.00
2023-09-15T01:54:47.151Z,18.00
2023-09-15T01:57:22.902Z,18.00
2023-09-15T01:59:58.556Z,18.10
2023-09-15T02:02:37.629Z,18.20
2023-09-15T02:05:14.167Z,18.20
2023-09-15T02:07:50.088Z,18.30
2023-09-15T02:10:29.791Z,18.30
2023-09-15T02:13:14.179Z,18.40
2023-09-15T02:15:48.605Z,18.40
2023-09-15T02:18:29.794Z,18.50
2023-09-15T02:21:06.906Z,18.60
2023-09-15T02:23:44.087Z,18.70
2023-09-15T02:26:20.411Z,18.70
2023-09-15T02:28:56.453Z,18.80
2023-09-15T02:31:33.828Z,18.80
2023-09-15T02:34:16.119Z,18.90
2023-09-15T02:36:52.226Z,18.90
2023-09-15T02:39:30.360Z,19.00
2023-09-15T02:42:11.860Z,19.10
2023-09-15T02:44:50.959Z,19.20
2023-09-15T02:47:26.487Z,19.40
2023-09-15T02:50:06.018Z,19.50
2023-09-15T02:52:42.093Z,19.60
2023-09-15T02:55:17.668Z,19.70
2023-09-15T02:57:54.803Z,19.80
2023-09-15T03:00:29.903Z,19.90
2023-09-15T03:03:06.990Z,20.00
2023-09-15T03:05:45.524Z,20.10
2023-09-15T03:08:21.198Z,20.20
2023-09-15T03:11:04.980Z,20.30
2023-09-15T03:13:41.640Z,20.40
2023-09-15T03:16:18.304Z,20.60
2023-09-15T03:18:57.658Z,20.70
2023-09-15T03:21:36.757Z,20.80
2023-09-15T03:24:13.226Z,20.90
2023-09-15T03:26:49.987Z,21.00
2023-09-15T03:29:24.976Z,21.00
2023-09-15T03:32:01.821Z,21.10
2023-09-15T03:34:37.666Z,21.10
2023-09-15T03:37:18.882Z,21.20
2023-09-15T03:40:05.978Z,21.30
2023-09-15T03:42:41.393Z,21.30
2023-09-15T03:45:21.114Z,21.40
2023-09-15T03:47:57.195Z,21.50
2023-09-15T03:50:36.469Z,21.60
2023-09-15T03:53:18.579Z,21.70
2023-09-15T03:55:56.099Z,21.80
2023-09-15T03:58:37.961Z,21.90
2023-09-15T04:01:16.295Z,21.90
2023-09-15T04:03:52.378Z,22.00
2023-09-15T04:06:31.489Z,22.00
2023-09-15T04:09:21.771Z,22.10
2023-09-15T04:11:57.348Z,22.10
2023-09-15T04:14:48.427Z,22.20
2023-09-15T04:17:25.741Z,22.30
2023-09-15T04:20:02.015Z,22.30
2023-09-15T04:22:44.316Z,22.40
2023-09-15T04:25:24.190Z,22.50
2023-09-15T04:28:14.346Z,22.60
2023-09-15T04:30:51.747Z,22.60
2023-09-15T04:33:27.406Z,22.70
2023-09-15T04:36:10.399Z,22.70
2023-09-15T04:38:49.161Z,22.70
2023-09-15T04:41:28.477Z,22.70
2023-09-15T04:44:04.243Z,22.80
2023-09-15T04:46:40.128Z,22.90
2023-09-15T04:49:15.477Z,23.00
2023-09-15T04:51:54.580Z,23.00
2023-09-15T04:54:32.612Z,23.10
2023-09-15T04:57:12.244Z,23.20
2023-09-15T04:59:53.066Z,23.20
2023-09-15T05:02:37.030Z,23.30
2023-09-15T05:05:13.484Z,23.20
2023-09-15T05:07:50.631Z,23.30
2023-09-15T05:10:25.969Z,23.30
2023-09-15T05:13:59.719Z,23.30
2023-09-15T05:16:45.342Z,23.30
2023-09-15T05:19:22.255Z,23.30
2023-09-15T05:21:59.632Z,23.30
2023-09-15T05:24:38.188Z,23.40
2023-09-15T05:27:13.804Z,23.40
2023-09-15T05:29:53.366Z,23.50
2023-09-15T05:32:32.831Z,23.50
2023-09-15T05:35:09.544Z,23.60
2023-09-15T05:37:45.710Z,23.70
2023-09-15T05:40:23.960Z,23.70
2023-09-15T05:43:01.964Z,23.70
2023-09-15T05:45:40.026Z,23.70
2023-09-15T05:48:16.635Z,23.80
2023-09-15T05:50:52.321Z,23.90
2023-09-15T05:53:27.958Z,24.00
2023-09-15T05:56:03.634Z,24.00
2023-09-15T05:58:39.348Z,24.10
2023-09-15T06:04:13.726Z,24.10
2023-09-15T06:06:52.149Z,24.00
2023-09-15T06:12:15.908Z,24.10
2023-09-15T06:14:53.236Z,24.10
2023-09-15T06:17:32.209Z,24.10
2023-09-15T06:20:07.714Z,24.10
2023-09-15T06:22:48.675Z,24.10
2023-09-15T06:25:33.418Z,24.10
2023-09-15T06:28:20.704Z,24.10
2023-09-15T06:31:02.946Z,24.20
2023-09-15T06:33:43.621Z,24.20
2023-09-15T06:36:20.364Z,24.20
2023-09-15T06:38:58.829Z,24.20
2023-09-15T06:41:46.162Z,24.20
2023-09-15T06:44:23.451Z,24.30
2023-09-15T06:47:04.324Z,24.30
2023-09-15T06:49:45.082Z,24.40
2023-09-15T06:52:42.364Z,24.40
2023-09-15T06:55:17.920Z,24.50
2023-09-15T06:57:57.077Z,24.50
2023-09-15T07:00:32.818Z,24.50
2023-09-15T07:03:17.055Z,24.50
2023-09-15T07:05:57.000Z,24.60
2023-09-15T07:08:36.157Z,24.60
2023-09-15T07:11:11.945Z,24.60
2023-09-15T07:14:19.490Z,24.70
2023-09-15T07:17:02.171Z,24.70
2023-09-15T07:19:55.898Z,24.70
2023-09-15T07:22:34.910Z,24.70
2023-09-15T07:25:13.930Z,24.80
2023-09-15T07:27:55.429Z,24.80
2023-09-15T07:30:32.049Z,24.90
2023-09-15T07:33:09.762Z,24.90
2023-09-15T07:35:54.684Z,24.90
2023-09-15T07:38:34.575Z,25.00
2023-09-15T07:41:24.183Z,25.00
2023-09-15T07:44:04.264Z,25.00
2023-09-15T07:46:40.400Z,25.00
2023-09-15T07:49:16.979Z,24.90
2023-09-15T07:51:53.345Z,24.80
2023-09-15T07:54:32.332Z,24.80
2023-09-15T07:57:11.072Z,24.80
2023-09-15T07:59:49.467Z,24.80
2023-09-15T08:02:29.611Z,24.90
2023-09-15T08:05:07.798Z,24.90
2023-09-15T08:07:47.766Z,25.00
2023-09-15T08:10:26.659Z,25.00
2023-09-15T08:13:03.063Z,25.00
2023-09-15T08:15:40.276Z,25.00
2023-09-15T08:18:28.005Z,25.10
2023-09-15T08:21:05.641Z,25.20
2023-09-15T08:23:52.152Z,25.20
2023-09-15T08:26:44.158Z,25.30
2023-09-15T08:29:20.199Z,25.30
2023-09-15T08:31:56.642Z,25.30
2023-09-15T08:34:32.956Z,25.30
2023-09-15T08:37:08.656Z,25.30
2023-09-15T08:39:46.472Z,25.30
2023-09-15T08:42:31.080Z,25.20
2023-09-15T08:45:12.914Z,25.20
2023-09-15T08:47:54.168Z,25.10
2023-09-15T08:50:31.435Z,25.00
2023-09-15T08:53:11.451Z,25.00
2023-09-15T08:55:47.227Z,25.00
2023-09-15T08:58:27.346Z,25.00
2023-09-15T09:01:03.843Z,25.00
2023-09-15T09:03:41.918Z,25.20
2023-09-15T09:06:21.690Z,25.20
2023-09-15T09:09:02.610Z,25.20
2023-09-15T09:11:41.087Z,25.20
2023-09-15T09:17:15.255Z,25.20
2023-09-15T09:19:50.798Z,25.20
2023-09-15T09:22:27.501Z,25.20
2023-09-15T09:25:06.243Z,25.20
2023-09-15T09:27:45.383Z,25.20
2023-09-15T09:33:14.779Z,25.10
2023-09-15T09:36:01.113Z,25.10
2023-09-15T09:38:36.708Z,25.00
2023-09-15T09:41:24.617Z,25.00
2023-09-15T09:44:16.316Z,25.00
2023-09-15T09:47:00.869Z,24.90
2023-09-15T09:49:37.670Z,24.90
2023-09-15T09:52:18.969Z,24.80
2023-09-15T09:54:58.996Z,24.80
2023-09-15T09:57:35.924Z,24.80
2023-09-15T10:00:13.102Z,24.70
2023-09-15T10:02:52.260Z,24.70
2023-09-15T10:05:28.291Z,24.60
2023-09-15T10:08:03.768Z,24.60
2023-09-15T10:10:46.700Z,24.60
2023-09-15T10:13:23.247Z,24.60
2023-09-15T10:16:00.574Z,24.60
2023-09-15T10:21:28.315Z,24.50
2023-09-15T10:27:02.968Z,24.50
2023-09-15T10:29:39.835Z,24.50
2023-09-15T10:32:16.082Z,24.40
2023-09-15T10:34:57.426Z,24.40
2023-09-15T10:37:33.006Z,24.30
2023-09-15T10:40:08.218Z,24.30
2023-09-15T10:42:57.557Z,24.20
2023-09-15T10:45:41.560Z,24.20
2023-09-15T10:48:17.714Z,24.10
2023-09-15T10:51:02.840Z,24.00
2023-09-15T10:53:50.226Z,23.90
2023-09-15T10:56:30.205Z,23.90
2023-09-15T10:59:07.026Z,23.80
2023-09-15T11:01:46.230Z,23.80
2023-09-15T11:04:24.111Z,23.70
2023-09-15T11:07:07.374Z,23.70
2023-09-15T11:09:43.728Z,23.60
2023-09-15T11:12:21.038Z,23.60
2023-09-15T11:14:56.962Z,23.60
2023-09-15T11:17:37.259Z,23.50
2023-09-15T11:20:19.425Z,23.50
2023-09-15T11:23:04.877Z,23.40
2023-09-15T11:28:50.512Z,23.30
2023-09-15T11:31:26.609Z,23.20
2023-09-15T11:34:21.608Z,23.10
2023-09-15T11:37:02.913Z,23.10
2023-09-15T11:39:42.868Z,23.00
2023-09-15T11:42:19.966Z,23.00
2023-09-15T11:44:58.117Z,22.90
2023-09-15T11:47:40.988Z,22.90
2023-09-15T11:50:36.978Z,22.90
2023-09-15T11:53:42.229Z,22.80
2023-09-15T11:56:23.958Z,22.70
2023-09-15T11:59:06.315Z,22.60
2023-09-15T12:01:42.616Z,22.60
2023-09-15T12:04:20.906Z,22.50
2023-09-15T12:07:14.728Z,22.50
2023-09-15T12:09:51.588Z,22.40
2023-09-15T12:12:50.381Z,22.30
2023-09-15T12:15:32.749Z,22.20
2023-09-15T12:18:14.287Z,22.10
2023-09-15T12:21:19.775Z,21.90
2023-09-15T12:23:57.238Z,21.80
2023-09-15T12:26:57.390Z,21.60
2023-09-15T12:30:29.878Z,21.60
2023-09-15T12:33:27.612Z,21.50
2023-09-15T12:36:07.951Z,21.40
2023-09-15T12:38:43.447Z,21.40
2023-09-15T12:41:20.459Z,21.40
2023-09-15T12:43:56.486Z,21.40
2023-09-15T12:46:36.094Z,21.30
2023-09-15T12:49:25.893Z,21.30
2023-09-15T12:52:02.009Z,21.30
2023-09-15T12:54:43.954Z,21.30
2023-09-15T12:57:19.392Z,21.30
2023-09-15T12:59:58.278Z,21.20
2023-09-15T13:02:54.091Z,21.30
2023-09-15T13:05:31.896Z,21.30
2023-09-15T13:08:07.691Z,21.40
2023-09-15T13:10:43.651Z,21.30
2023-09-15T13:16:08.445Z,21.20
2023-09-15T13:19:02.221Z,21.20
2023-09-15T13:22:11.436Z,21.10
2023-09-15T13:24:46.831Z,20.90
2023-09-15T13:27:25.957Z,20.80
2023-09-15T13:30:09.932Z,20.80
2023-09-15T13:32:46.601Z,20.70
2023-09-15T13:35:26.426Z,20.50
2023-09-15T13:38:03.128Z,20.50
2023-09-15T13:41:27.514Z,20.40
2023-09-15T13:44:09.471Z,20.40
2023-09-15T13:46:45.137Z,20.20
2023-09-15T13:49:20.956Z,20.20
2023-09-15T13:52:14.805Z,20.10
2023-09-15T13:55:07.388Z,20.00
2023-09-15T13:57:45.053Z,20.00
2023-09-15T14:00:21.570Z,19.90
2023-09-15T14:03:12.252Z,19.80
2023-09-15T14:06:11.778Z,19.70
2023-09-15T14:09:02.428Z,19.60
2023-09-15T14:11:40.781Z,19.40
2023-09-15T14:14:16.436Z,19.40
2023-09-15T14:17:12.567Z,19.30
2023-09-15T14:19:48.325Z,19.20
2023-09-15T14:22:23.860Z,19.10
2023-09-15T14:25:02.240Z,19.10
2023-09-15T14:27:42.562Z,19.10
2023-09-15T14:30:43.873Z,19.20
2023-09-15T14:33:27.388Z,19.20
2023-09-15T14:36:04.854Z,19.20
2023-09-15T14:38:40.489Z,19.20
2023-09-15T14:41:43.128Z,19.20
2023-09-15T14:44:28.544Z,19.30
2023-09-15T14:47:25.619Z,19.30
2023-09-15T14:50:15.417Z,19.20
2023-09-15T14:52:55.846Z,19.10
2023-09-15T14:55:40.902Z,19.10
2023-09-15T14:58:25.897Z,19.10
2023-09-15T15:01:02.453Z,19.00
2023-09-15T15:03:39.068Z,18.90
2023-09-15T15:09:30.165Z,18.90
2023-09-15T15:12:05.418Z,18.90
2023-09-15T15:14:49.925Z,18.80
2023-09-15T15:17:30.291Z,18.80
2023-09-15T15:20:29.359Z,18.70
2023-09-15T15:25:53.978Z,18.70
2023-09-15T15:28:32.181Z,18.60
2023-09-15T15:31:17.923Z,18.40
2023-09-15T15:34:00.205Z,18.20
2023-09-15T15:36:37.867Z,18.10
2023-09-15T15:39:21.510Z,17.90
2023-09-15T15:41:57.852Z,17.90
2023-09-15T15:44:36.169Z,17.90
2023-09-15T15:47:47.457Z,17.90
2023-09-15T15:50:40.293Z,17.90
2023-09-15T15:53:24.668Z,17.90
2023-09-15T15:55:59.533Z,17.90
2023-09-15T15:58:35.173Z,17.90
2023-09-15T16:01:11.773Z,18.00
2023-09-15T16:03:50.607Z,18.00
2023-09-15T16:06:28.824Z,18.00
2023-09-15T16:09:05.306Z,18.00
2023-09-15T16:11:44.063Z,18.00
2023-09-15T16:14:26.990Z,18.00
2023-09-15T16:17:02.539Z,18.00
2023-09-15T16:19:43.034Z,18.00
2023-09-15T16:22:30.237Z,18.00
2023-09-15T16:25:05.930Z,17.90
2023-09-15T16:27:44.738Z,17.90
2023-09-15T16:30:22.032Z,17.70
2023-09-15T16:32:59.221Z,17.50
2023-09-15T16:35:39.532Z,17.30
2023-09-15T16:38:17.774Z,17.20
2023-09-15T16:40:56.531Z,17.10
2023-09-15T16:43:34.630Z,17.10
2023-09-15T16:46:10.209Z,17.20
2023-09-15T16:48:45.689Z,17.20
2023-09-15T16:51:29.583Z,17.30
2023-09-15T16:54:07.711Z,17.40
2023-09-15T16:56:44.867Z,17.50
2023-09-15T17:02:15.068Z,17.60
2023-09-15T17:07:42.869Z,17.60
2023-09-15T17:10:42.656Z,17.60
2023-09-15T17:13:36.861Z,17.60
2023-09-15T17:16:42.129Z,17.60
2023-09-15T17:19:25.024Z,17.50
2023-09-15T17:21:59.782Z,17.30
2023-09-15T17:27:30.999Z,17.10
2023-09-15T17:30:26.273Z,17.10
2023-09-15T17:33:01.604Z,17.10
2023-09-15T17:35:44.160Z,17.10
2023-09-15T17:41:12.534Z,17.10
2023-09-15T17:43:50.829Z,17.10
2023-09-15T17:46:26.423Z,17.20
2023-09-15T17:49:03.758Z,17.20
2023-09-15T17:51:45.028Z,17.10
2023-09-15T17:54:22.765Z,17.20
2023-09-15T17:57:03.468Z,17.20
2023-09-15T17:59:38.802Z,17.20
2023-09-15T18:02:13.626Z,17.20
2023-09-15T18:04:50.201Z,17.20
2023-09-15T18:07:25.560Z,17.20
2023-09-15T18:10:05.827Z,17.20
2023-09-15T18:12:56.085Z,17.10
2023-09-15T18:15:31.689Z,17.10
2023-09-15T18:18:09.463Z,17.00
2023-09-15T18:20:45.744Z,17.00
2023-09-15T18:23:22.700Z,17.00
2023-09-15T18:25:58.907Z,16.90
2023-09-15T18:28:36.489Z,16.90
2023-09-15T18:31:11.952Z,16.90
2023-09-15T18:33:47.381Z,16.90
2023-09-15T18:36:26.584Z,17.00
2023-09-15T18:39:01.506Z,17.00
2023-09-15T18:41:38.257Z,17.00
2023-09-15T18:44:16.472Z,16.90
2023-09-15T18:46:51.538Z,16.90
2023-09-15T18:49:29.080Z,16.90
2023-09-15T18:52:04.180Z,16.90
2023-09-15T18:54:39.610Z,16.90
2023-09-15T18:57:17.404Z,16.90
2023-09-15T18:59:57.133Z,16.90
2023-09-15T19:02:32.911Z,16.80
2023-09-15T19:05:10.645Z,16.80
2023-09-15T19:07:46.126Z,16.80
2023-09-15T19:10:22.418Z,16.80
2023-09-15T19:13:03.640Z,16.80
2023-09-15T19:15:44.128Z,16.70
2023-09-15T19:18:19.271Z,16.60
2023-09-15T19:20:54.636Z,16.50
2023-09-15T19:23:30.349Z,16.50
2023-09-15T19:26:06.249Z,16.40
2023-09-15T19:28:41.025Z,16.30
2023-09-15T19:31:19.012Z,16.20
2023-09-15T19:33:55.953Z,16.20
2023-09-15T19:36:35.117Z,16.10
2023-09-15T19:39:11.444Z,16.10
2023-09-15T19:41:46.235Z,16.10
2023-09-15T19:44:25.462Z,16.00
2023-09-15T19:47:03.156Z,16.00
2023-09-15T19:49:38.402Z,16.00
2023-09-15T19:52:13.580Z,16.00
2023-09-15T19:54:54.264Z,15.90
2023-09-15T19:57:31.436Z,15.90
2023-09-15T20:00:07.582Z,15.90
2023-09-15T20:02:45.695Z,15.90
2023-09-15T20:05:21.412Z,15.90
2023-09-15T20:07:59.155Z,16.00
2023-09-15T20:10:34.400Z,15.90
2023-09-15T20:13:09.737Z,15.90
2023-09-15T20:15:46.444Z,15.90
2023-09-15T20:18:30.167Z,16.00
2023-09-15T20:21:05.543Z,16.00
2023-09-15T20:23:40.892Z,16.00
2023-09-15T20:26:15.986Z,16.00
2023-09-15T20:28:51.372Z,16.00
2023-09-15T20:31:26.681Z,16.00
2023-09-15T20:34:11.126Z,16.10
2023-09-15T20:36:45.407Z,16.00
2023-09-15T20:39:23.453Z,16.00
2023-09-15T20:41:58.685Z,16.00
2023-09-15T20:44:34.070Z,16.00
2023-09-15T20:47:09.437Z,16.00
2023-09-15T20:49:47.956Z,15.90
2023-09-15T20:52:24.612Z,16.00
2023-09-15T20:55:03.444Z,15.90
2023-09-15T20:57:39.087Z,15.90
2023-09-15T21:00:17.901Z,16.00
2023-09-15T21:02:53.011Z,16.00
2023-09-15T21:05:34.171Z,15.90
2023-09-15T21:08:09.639Z,15.90
2023-09-15T21:10:44.909Z,16.00
2023-09-15T21:13:20.474Z,15.90
2023-09-15T21:15:56.478Z,15.90
2023-09-15T21:18:31.985Z,15.90
2023-09-15T21:21:11.087Z,15.80
2023-09-15T21:23:46.769Z,15.80
2023-09-15T21:26:24.392Z,15.80
2023-09-15T21:29:01.547Z,15.80
2023-09-15T21:31:37.622Z,15.80
2023-09-15T21:34:12.620Z,15.80
2023-09-15T21:36:50.516Z,15.70
2023-09-15T21:39:26.270Z,15.70
2023-09-15T21:42:01.376Z,15.70
2023-09-15T21:44:36.680Z,15.70
2023-09-15T21:47:11.918Z,15.70
2023-09-15T21:49:47.252Z,15.70
2023-09-15T21:52:26.272Z,15.70
2023-09-15T21:55:01.341Z,15.60
2023-09-15T21:57:36.587Z,15.40
2023-09-15T22:00:22.955Z,15.40
2023-09-15T22:03:06.908Z,15.30
2023-09-15T22:05:42.548Z,15.20
2023-09-15T22:08:20.458Z,15.20
2023-09-15T22:10:56.400Z,15.20
2023-09-15T22:13:33.645Z,15.20
2023-09-15T22:16:08.467Z,15.20
2023-09-15T22:18:44.245Z,15.20
2023-09-15T22:21:19.196Z,15.10
2023-09-15T22:24:02.450Z,15.00
2023-09-15T22:26:37.440Z,14.90
2023-09-15T22:29:12.053Z,14.90
2023-09-15T22:31:47.079Z,14.90
2023-09-15T22:34:22.021Z,14.90
2023-09-15T22:36:56.914Z,14.80
2023-09-15T22:39:35.829Z,14.80
2023-09-15T22:42:11.271Z,14.70
2023-09-15T22:44:46.155Z,14.60
2023-09-15T22:47:23.530Z,14.60
2023-09-15T22:49:59.068Z,14.60
2023-09-15T22:52:34.451Z,14.50
2023-09-15T22:55:15.074Z,14.50
2023-09-15T22:57:53.036Z,14.50
2023-09-15T23:00:28.894Z,14.50
2023-09-15T23:03:04.456Z,14.50
2023-09-15T23:05:39.917Z,14.50
2023-09-15T23:08:16.025Z,14.50
2023-09-15T23:10:57.811Z,14.50
2023-09-15T23:13:38.606Z,14.50
2023-09-15T23:16:15.047Z,14.50
2023-09-15T23:18:51.267Z,14.40
2023-09-15T23:21:27.457Z,14.40
2023-09-15T23:24:02.766Z,14.40
2023-09-15T23:26:42.641Z,14.30
2023-09-15T23:29:20.656Z,14.30
2023-09-15T23:31:59.175Z,14.30
2023-09-15T23:34:36.675Z,14.30
2023-09-15T23:37:12.820Z,14.30
2023-09-15T23:39:48.968Z,14.30
2023-09-15T23:42:28.077Z,14.30
2023-09-15T23:45:04.434Z,14.30
2023-09-15T23:47:39.753Z,14.30
2023-09-15T23:50:16.016Z,14.30
2023-09-15T23:52:51.735Z,14.30
2023-09-15T23:55:27.546Z,14.40
2023-09-15T23:58:07.384Z,14.40
